Time;durP1;ratioP1;P1;durP2;ratioP2;P2;SDS_P1;SDS_P2;PMS_P1;PMS_P2;Temp;Humidity;BMP_temperature;BMP_pressure;BME280_temperature;BME280_humidity;BME280_pressure;Samples;Min_cycle;Max_cycle;Signal;HPM_P1;HPM_P2
2022/05/27 00:00:19;;;;;;;2.55;0.80;;;;;;;;;;4922319;29;20085;-76
2022/05/27 00:02:46;;;;;;;2.30;0.85;;;;;;;;;;4920143;28;20474;-77
2022/05/27 00:05:11;;;;;;;4.25;0.85;;;;;;;;;;4935540;28;20039;-77
2022/05/27 00:07:37;;;;;;;1.80;0.80;;;;;;;;;;4935541;28;20046;-77
2022/05/27 00:10:02;;;;;;;2.65;0.85;;;;;;;;;;4935154;28;20399;-77
2022/05/27 00:12:28;;;;;;;2.78;0.60;;;;;;;;;;4935491;29;20047;-77
2022/05/27 00:14:53;;;;;;;2.42;1.00;;;;;;;;;;4935497;28;20039;-77
2022/05/27 00:17:20;;;;;;;1.42;0.73;;;;;;;;;;5002157;28;20513;-77
2022/05/27 00:19:45;;;;;;;3.13;0.73;;;;;;;;;;4998181;28;20089;-77
2022/05/27 00:22:11;;;;;;;1.80;0.63;;;;;;;;;;4935234;29;20490;-77
2022/05/27 00:24:36;;;;;;;1.52;0.60;;;;;;;;;;4934832;29;20043;-77
2022/05/27 00:27:03;;;;;;;1.20;0.65;;;;;;;;;;4934882;28;20051;-77
2022/05/27 00:29:28;;;;;;;2.65;0.90;;;;;;;;;;4985899;28;20047;-77
2022/05/27 00:31:54;;;;;;;1.95;0.75;;;;;;;;;;4985993;28;20062;-77
2022/05/27 00:34:19;;;;;;;1.92;0.70;;;;;;;;;;5002117;28;20394;-77
2022/05/27 00:36:44;;;;;;;3.28;1.35;;;;;;;;;;5001863;28;20039;-77
2022/05/27 00:39:10;;;;;;;3.20;1.45;;;;;;;;;;5001556;28;20463;-77
2022/05/27 00:41:35;;;;;;;3.45;1.10;;;;;;;;;;5001414;28;20112;-77
2022/05/27 00:44:01;;;;;;;2.40;0.98;;;;;;;;;;4918325;29;20039;-77
2022/05/27 00:46:31;;;;;;;1.55;0.95;;;;;;;;;;5002252;28;20047;-77
2022/05/27 00:49:16;;;;;;;1.67;0.70;;;;;;;;;;4940054;28;20077;-77
2022/05/27 00:51:50;;;;;;;2.75;0.90;;;;;;;;;;4934680;28;20035;-77
2022/05/27 00:54:17;;;;;;;2.00;1.08;;;;;;;;;;4934830;28;20038;-76
2022/05/27 00:56:44;;;;;;;2.10;0.70;;;;;;;;;;4950961;28;20065;-77
2022/05/27 00:59:41;;;;;;;3.00;0.82;;;;;;;;;;4934726;28;20035;-77
2022/05/27 01:02:06;;;;;;;3.60;0.80;;;;;;;;;;4930294;28;20058;-77
2022/05/27 01:04:32;;;;;;;1.98;0.60;;;;;;;;;;4931566;28;20497;-77
2022/05/27 01:06:58;;;;;;;1.88;0.68;;;;;;;;;;4931202;29;20043;-77
2022/05/27 01:09:23;;;;;;;2.28;0.63;;;;;;;;;;4931326;29;20047;-77
2022/05/27 01:12:07;;;;;;;1.63;0.60;;;;;;;;;;4931390;28;20114;-77
2022/05/27 01:14:51;;;;;;;3.28;0.70;;;;;;;;;;4932654;29;20517;-77
2022/05/27 01:17:50;;;;;;;1.73;0.47;;;;;;;;;;4932215;28;20047;-77
2022/05/27 01:20:18;;;;;;;2.83;0.50;;;;;;;;;;4899221;29;20048;-77
2022/05/27 01:23:05;;;;;;;1.98;0.50;;;;;;;;;;4951057;28;20520;-77
2022/05/27 01:26:01;;;;;;;2.40;0.47;;;;;;;;;;4951015;28;20405;-77
2022/05/27 01:28:38;;;;;;;2.38;0.75;;;;;;;;;;5012780;28;20126;-77
2022/05/27 01:31:17;;;;;;;1.63;0.50;;;;;;;;;;5017743;28;20067;-77
2022/05/27 01:33:49;;;;;;;1.60;0.45;;;;;;;;;;5001871;28;20109;-77
2022/05/27 01:36:42;;;;;;;1.40;0.40;;;;;;;;;;4981629;28;20058;-77
2022/05/27 01:39:08;;;;;;;2.65;0.57;;;;;;;;;;4933904;29;20452;-77
2022/05/27 01:42:07;;;;;;;2.00;0.60;;;;;;;;;;4949321;28;20049;-77
2022/05/27 01:44:32;;;;;;;1.35;0.57;;;;;;;;;;4929565;28;20411;-77
2022/05/27 01:46:58;;;;;;;2.90;0.60;;;;;;;;;;4933853;29;20054;-77
2022/05/27 01:49:37;;;;;;;2.08;0.63;;;;;;;;;;4934113;29;20116;-77
2022/05/27 01:52:29;;;;;;;2.80;0.60;;;;;;;;;;4918276;28;20840;-77
2022/05/27 01:55:01;;;;;;;1.95;0.57;;;;;;;;;;4933742;28;20031;-77
2022/05/27 01:57:34;;;;;;;1.02;0.55;;;;;;;;;;4918109;29;20041;-77
2022/05/27 02:00:10;;;;;;;0.88;0.40;;;;;;;;;;4934265;29;20035;-76
2022/05/27 02:02:39;;;;;;;3.85;0.80;;;;;;;;;;4918179;29;20031;-77
2022/05/27 02:05:14;;;;;;;2.38;0.80;;;;;;;;;;4933669;29;20036;-77
2022/05/27 02:07:47;;;;;;;2.78;0.50;;;;;;;;;;4933947;29;20047;-77
2022/05/27 02:10:20;;;;;;;0.85;0.32;;;;;;;;;;4933844;29;20044;-77
2022/05/27 02:13:33;;;;;;;1.67;0.50;;;;;;;;;;5016865;28;20034;-77
2022/05/27 02:15:58;;;;;;;2.08;0.40;;;;;;;;;;4945427;29;20532;-77
2022/05/27 02:18:47;;;;;;;1.33;0.38;;;;;;;;;;4945436;28;20036;-77
2022/05/27 02:21:22;;;;;;;1.90;0.35;;;;;;;;;;4949688;28;20819;-77
2022/05/27 02:23:50;;;;;;;2.65;0.93;;;;;;;;;;5000562;28;20035;-77
2022/05/27 02:26:17;;;;;;;2.15;0.60;;;;;;;;;;5000912;28;20566;-76
2022/05/27 02:28:45;;;;;;;1.75;0.40;;;;;;;;;;5000184;28;20110;-77
2022/05/27 02:31:15;;;;;;;1.90;0.57;;;;;;;;;;5000940;28;20036;-77
2022/05/27 02:36:35;;;;;;;2.97;0.60;;;;;;;;;;5015785;28;20027;-77
2022/05/27 02:39:00;;;;;;;1.73;0.40;;;;;;;;;;4952466;28;20030;-77
2022/05/27 02:41:31;;;;;;;1.13;0.30;;;;;;;;;;5003541;28;20038;-77
2022/05/27 02:44:07;;;;;;;1.85;0.63;;;;;;;;;;4952643;28;20433;-77
2022/05/27 02:46:57;;;;;;;2.63;0.75;;;;;;;;;;4952327;28;20157;-77
2022/05/27 02:49:58;;;;;;;0.85;0.38;;;;;;;;;;4952017;28;20513;-77
2022/05/27 02:52:45;;;;;;;1.95;0.70;;;;;;;;;;4947933;28;20050;-77
2022/05/27 02:55:43;;;;;;;1.13;0.30;;;;;;;;;;4952519;28;20031;-77
2022/05/27 02:58:09;;;;;;;2.17;0.40;;;;;;;;;;4954699;28;20109;-77
2022/05/27 03:00:36;;;;;;;2.47;0.75;;;;;;;;;;4934034;28;20130;-77
2022/05/27 03:03:02;;;;;;;1.77;0.40;;;;;;;;;;5016060;28;20043;-77
2022/05/27 03:06:14;;;;;;;3.13;0.95;;;;;;;;;;4949854;28;20109;-77
2022/05/27 03:08:45;;;;;;;1.50;0.40;;;;;;;;;;4948556;28;20097;-76
2022/05/27 03:11:26;;;;;;;1.15;0.30;;;;;;;;;;4952249;28;20122;-77
2022/05/27 03:14:07;;;;;;;1.70;0.50;;;;;;;;;;4917652;29;20087;-76
2022/05/27 03:16:45;;;;;;;4.75;1.13;;;;;;;;;;4952456;28;20378;-77
2022/05/27 03:19:25;;;;;;;2.33;0.35;;;;;;;;;;4951944;28;20047;-77
2022/05/27 03:22:22;;;;;;;1.50;0.30;;;;;;;;;;4921269;28;20050;-77
2022/05/27 03:24:51;;;;;;;3.50;0.95;;;;;;;;;;4938912;29;20036;-76
2022/05/27 03:27:34;;;;;;;2.35;0.50;;;;;;;;;;4953173;29;20096;-77
2022/05/27 03:30:08;;;;;;;2.08;0.60;;;;;;;;;;4981478;28;20096;-77
2022/05/27 03:33:02;;;;;;;1.60;0.50;;;;;;;;;;5002495;28;20047;-77
2022/05/27 03:35:43;;;;;;;2.30;1.00;;;;;;;;;;4955528;28;20110;-77
2022/05/27 03:38:12;;;;;;;1.52;0.50;;;;;;;;;;4954893;28;20042;-77
2022/05/27 03:40:58;;;;;;;1.85;0.65;;;;;;;;;;4955148;28;20042;-77
2022/05/27 03:43:23;;;;;;;3.35;0.70;;;;;;;;;;4956807;28;20421;-77
2022/05/27 03:45:54;;;;;;;2.67;0.80;;;;;;;;;;4954539;28;20121;-77
2022/05/27 03:48:20;;;;;;;1.35;0.65;;;;;;;;;;4989985;28;20039;-77
2022/05/27 03:50:49;;;;;;;1.63;0.50;;;;;;;;;;4955228;28;20031;-76
2022/05/27 03:53:15;;;;;;;2.78;0.70;;;;;;;;;;4954788;28;20077;-77
2022/05/27 03:55:44;;;;;;;1.88;0.95;;;;;;;;;;4955263;28;20043;-77
2022/05/27 03:58:14;;;;;;;1.55;0.60;;;;;;;;;;5023028;28;20053;-77
2022/05/27 04:00:40;;;;;;;1.38;0.65;;;;;;;;;;4951828;28;20444;-77
2022/05/27 04:03:06;;;;;;;2.47;0.70;;;;;;;;;;5002761;28;20043;-77
2022/05/27 04:05:31;;;;;;;4.00;1.05;;;;;;;;;;5001727;28;20036;-77
2022/05/27 04:07:56;;;;;;;3.05;0.95;;;;;;;;;;4934801;29;20055;-77
2022/05/27 04:10:22;;;;;;;3.45;0.80;;;;;;;;;;4935353;28;20035;-77
2022/05/27 04:12:47;;;;;;;3.25;0.70;;;;;;;;;;4903829;28;20043;-76
2022/05/27 04:15:13;;;;;;;2.97;0.70;;;;;;;;;;4935283;29;20106;-77
2022/05/27 04:17:40;;;;;;;1.45;0.50;;;;;;;;;;5001739;28;20110;-77
2022/05/27 04:20:11;;;;;;;2.17;0.50;;;;;;;;;;4996194;28;20031;-77
2022/05/27 04:22:37;;;;;;;2.53;0.88;;;;;;;;;;4919902;28;20398;-77
2022/05/27 04:25:03;;;;;;;2.08;0.70;;;;;;;;;;4919962;28;20062;-76
2022/05/27 04:27:29;;;;;;;2.25;0.65;;;;;;;;;;4987684;28;20493;-77
2022/05/27 04:29:54;;;;;;;2.47;0.98;;;;;;;;;;5001843;28;20080;-77
2022/05/27 04:32:23;;;;;;;2.42;0.68;;;;;;;;;;4986072;28;20031;-77
2022/05/27 04:34:52;;;;;;;2.97;0.80;;;;;;;;;;5000939;28;20070;-77
2022/05/27 04:37:18;;;;;;;3.10;1.10;;;;;;;;;;4985994;28;20424;-77
2022/05/27 04:39:44;;;;;;;2.17;0.75;;;;;;;;;;4937318;28;20058;-76
2022/05/27 04:42:10;;;;;;;3.22;0.68;;;;;;;;;;5001850;28;20051;-77
2022/05/27 04:44:35;;;;;;;1.70;0.70;;;;;;;;;;4934534;29;20032;-77
2022/05/27 04:47:01;;;;;;;1.85;0.88;;;;;;;;;;5018186;28;20039;-77
2022/05/27 04:52:11;;;;;;;2.90;0.80;;;;;;;;;;4974526;28;20032;-77
2022/05/27 04:54:36;;;;;;;4.55;1.13;;;;;;;;;;4982371;28;20034;-77
2022/05/27 04:57:01;;;;;;;26.45;1.65;;;;;;;;;;4998386;28;20142;-78
2022/05/27 04:59:27;;;;;;;1.95;0.90;;;;;;;;;;4981579;28;20040;-78
2022/05/27 05:01:53;;;;;;;3.60;0.82;;;;;;;;;;4985485;28;20049;-78
2022/05/27 05:04:18;;;;;;;3.75;1.13;;;;;;;;;;5000552;28;20046;-77
2022/05/27 05:06:44;;;;;;;3.40;0.90;;;;;;;;;;4934582;29;20035;-77
2022/05/27 05:09:09;;;;;;;7.60;1.75;;;;;;;;;;4929373;28;20410;-77
2022/05/27 05:11:35;;;;;;;5.35;1.27;;;;;;;;;;4985106;28;20035;-78
2022/05/27 05:14:00;;;;;;;10.57;1.65;;;;;;;;;;4902565;29;20042;-77
2022/05/27 05:16:26;;;;;;;9.07;2.65;;;;;;;;;;4926184;28;20040;-77
2022/05/27 05:18:51;;;;;;;5.93;1.20;;;;;;;;;;4997710;28;20034;-77
2022/05/27 05:21:17;;;;;;;7.53;1.58;;;;;;;;;;4997900;28;20115;-77
2022/05/27 05:23:43;;;;;;;10.13;1.65;;;;;;;;;;4998185;28;20866;-77
2022/05/27 05:26:08;;;;;;;6.05;1.38;;;;;;;;;;4915213;28;20036;-77
2022/05/27 05:28:33;;;;;;;7.75;1.42;;;;;;;;;;4996668;28;20521;-76
2022/05/27 05:30:59;;;;;;;8.25;1.70;;;;;;;;;;4931538;28;20069;-77
2022/05/27 05:33:24;;;;;;;5.15;1.25;;;;;;;;;;4931093;29;20433;-77
2022/05/27 05:35:50;;;;;;;8.32;1.45;;;;;;;;;;4940758;28;20112;-77
2022/05/27 05:38:16;;;;;;;4.85;1.52;;;;;;;;;;4953112;28;20045;-77
2022/05/27 05:40:41;;;;;;;6.68;1.80;;;;;;;;;;4953453;28;20031;-77
2022/05/27 05:43:07;;;;;;;14.70;2.58;;;;;;;;;;4917185;28;20071;-77
2022/05/27 05:45:32;;;;;;;7.82;2.42;;;;;;;;;;4997546;28;20043;-77
2022/05/27 05:47:58;;;;;;;6.65;1.70;;;;;;;;;;4997289;28;20054;-77
2022/05/27 05:50:24;;;;;;;5.45;1.60;;;;;;;;;;4997166;28;20040;-78
2022/05/27 05:52:49;;;;;;;7.78;1.90;;;;;;;;;;4980779;28;20039;-78
2022/05/27 05:55:15;;;;;;;33.25;29.75;;;;;;;;;;4914970;28;20126;-78
2022/05/27 05:57:41;;;;;;;85.63;76.82;;;;;;;;;;5000522;28;20118;-77
2022/05/27 06:00:09;;;;;;;42.17;37.40;;;;;;;;;;4917913;29;20153;-78
2022/05/27 06:02:34;;;;;;;44.45;39.03;;;;;;;;;;4917334;28;20058;-78
2022/05/27 06:05:03;;;;;;;27.83;20.30;;;;;;;;;;4934100;29;20115;-78
2022/05/27 06:07:30;;;;;;;28.23;17.92;;;;;;;;;;5000387;28;20039;-78
2022/05/27 06:09:55;;;;;;;20.73;16.13;;;;;;;;;;5000520;28;20122;-78
2022/05/27 06:12:23;;;;;;;17.40;13.05;;;;;;;;;;5000229;28;20062;-78
2022/05/27 06:14:50;;;;;;;16.92;13.57;;;;;;;;;;4933739;29;20508;-78
2022/05/27 06:17:15;;;;;;;17.90;12.85;;;;;;;;;;4932553;29;20110;-78
2022/05/27 06:19:41;;;;;;;12.10;10.10;;;;;;;;;;4930247;29;20093;-78
2022/05/27 06:22:07;;;;;;;14.27;9.23;;;;;;;;;;4913836;29;20036;-78
2022/05/27 06:24:32;;;;;;;9.50;7.60;;;;;;;;;;4914968;28;20135;-78
2022/05/27 06:26:58;;;;;;;11.23;8.07;;;;;;;;;;4964368;28;20035;-78
2022/05/27 06:34:51;;;;;;;7.93;4.90;;;;;;;;;;4992804;28;20039;-78
2022/05/27 06:37:21;;;;;;;9.00;4.97;;;;;;;;;;4999765;28;20043;-77
2022/05/27 06:39:47;;;;;;;6.63;4.63;;;;;;;;;;4933632;28;20035;-78
2022/05/27 06:42:13;;;;;;;9.80;4.00;;;;;;;;;;4936409;28;20040;-77
2022/05/27 06:44:39;;;;;;;7.68;4.25;;;;;;;;;;5004110;28;20046;-77
2022/05/27 06:47:05;;;;;;;7.20;3.25;;;;;;;;;;5004079;28;20043;-78
2022/05/27 06:49:31;;;;;;;6.03;2.85;;;;;;;;;;4936840;29;20054;-78
2022/05/27 06:51:56;;;;;;;6.38;3.72;;;;;;;;;;4923225;28;20035;-77
2022/05/27 06:54:22;;;;;;;4.40;2.90;;;;;;;;;;4936495;29;20122;-78
2022/05/27 06:56:52;;;;;;;9.50;2.70;;;;;;;;;;4936937;28;20518;-77
2022/05/27 06:59:19;;;;;;;3.80;2.50;;;;;;;;;;4937094;28;20830;-78
2022/05/27 07:01:45;;;;;;;3.70;1.88;;;;;;;;;;4936436;28;20455;-77
2022/05/27 07:04:11;;;;;;;3.30;1.70;;;;;;;;;;5003316;28;20118;-77
2022/05/27 07:06:38;;;;;;;4.95;2.45;;;;;;;;;;4935314;28;20043;-77
2022/05/27 07:09:06;;;;;;;6.22;2.05;;;;;;;;;;4920203;29;20035;-77
2022/05/27 07:11:32;;;;;;;2.97;1.85;;;;;;;;;;4936791;28;20061;-77
2022/05/27 07:13:58;;;;;;;4.18;1.85;;;;;;;;;;4987409;28;20614;-77
2022/05/27 07:16:24;;;;;;;4.65;1.80;;;;;;;;;;4936572;29;20176;-77
2022/05/27 07:18:49;;;;;;;2.92;1.83;;;;;;;;;;5003800;28;20405;-77
2022/05/27 07:21:14;;;;;;;5.45;1.90;;;;;;;;;;5003188;28;20051;-77
2022/05/27 07:23:40;;;;;;;3.78;1.75;;;;;;;;;;5003428;28;20405;-77
2022/05/27 07:26:05;;;;;;;4.85;2.15;;;;;;;;;;4946306;28;20065;-77
2022/05/27 07:28:33;;;;;;;4.50;1.65;;;;;;;;;;5003402;28;20490;-77
2022/05/27 07:31:01;;;;;;;6.15;2.10;;;;;;;;;;5004019;28;20058;-77
2022/05/27 07:33:26;;;;;;;3.50;1.75;;;;;;;;;;5018186;28;20038;-77
2022/05/27 07:35:52;;;;;;;6.25;2.33;;;;;;;;;;5002760;28;20043;-77
2022/05/27 07:38:17;;;;;;;5.57;1.98;;;;;;;;;;4935816;29;20043;-77
2022/05/27 07:40:42;;;;;;;3.92;1.73;;;;;;;;;;4936025;28;20431;-77
2022/05/27 07:43:08;;;;;;;4.60;2.33;;;;;;;;;;4935657;29;20133;-77
2022/05/27 07:45:36;;;;;;;4.55;2.00;;;;;;;;;;4935331;28;21403;-78
2022/05/27 07:48:01;;;;;;;5.38;2.05;;;;;;;;;;4936899;28;20039;-77
2022/05/27 07:50:27;;;;;;;5.97;2.50;;;;;;;;;;4935578;29;20389;-78
2022/05/27 07:52:52;;;;;;;4.10;1.88;;;;;;;;;;4935126;29;20852;-78
2022/05/27 07:55:18;;;;;;;4.47;1.85;;;;;;;;;;4936003;29;20036;-78
2022/05/27 07:57:44;;;;;;;5.32;2.20;;;;;;;;;;4935807;29;20043;-78
2022/05/27 08:00:22;;;;;;;5.30;1.77;;;;;;;;;;4936147;28;20126;-78
2022/05/27 08:02:47;;;;;;;4.63;1.63;;;;;;;;;;4919405;28;20046;-77
2022/05/27 08:05:15;;;;;;;5.18;2.03;;;;;;;;;;4918621;29;20119;-78
2022/05/27 08:07:40;;;;;;;3.33;1.20;;;;;;;;;;4934877;28;20073;-77
2022/05/27 08:10:07;;;;;;;3.00;1.15;;;;;;;;;;4919511;29;20461;-77
2022/05/27 08:12:33;;;;;;;4.35;1.20;;;;;;;;;;4919945;28;20039;-77
2022/05/27 08:14:59;;;;;;;2.92;1.20;;;;;;;;;;5016599;28;20035;-77
2022/05/27 08:17:24;;;;;;;3.30;1.30;;;;;;;;;;4950165;29;20185;-77
2022/05/27 08:19:49;;;;;;;4.00;1.30;;;;;;;;;;4950430;28;20051;-77
2022/05/27 08:22:15;;;;;;;2.33;0.80;;;;;;;;;;4934516;28;20417;-77
2022/05/27 08:24:41;;;;;;;3.33;1.08;;;;;;;;;;4935880;28;20043;-77
2022/05/27 08:27:07;;;;;;;2.17;0.82;;;;;;;;;;4951002;28;20040;-77
2022/05/27 08:29:33;;;;;;;4.53;0.93;;;;;;;;;;4934988;28;20173;-77
2022/05/27 08:32:03;;;;;;;3.08;0.95;;;;;;;;;;4920111;29;20097;-77
2022/05/27 08:39:58;;;;;;;2.88;1.35;;;;;;;;;;4937451;29;20039;-77
2022/05/27 08:42:51;;;;;;;2.78;0.98;;;;;;;;;;4935528;28;20047;-77
2022/05/27 08:45:22;;;;;;;2.78;1.08;;;;;;;;;;4951189;28;20054;-77
2022/05/27 08:47:53;;;;;;;2.22;0.80;;;;;;;;;;4934522;28;20027;-77
2022/05/27 08:50:29;;;;;;;2.08;1.33;;;;;;;;;;4919181;29;20054;-76
2022/05/27 08:53:32;;;;;;;3.67;1.20;;;;;;;;;;4934883;28;20035;-77
2022/05/27 09:01:33;;;;;;;3.10;1.52;;;;;;;;;;4931613;29;20031;-78
2022/05/27 09:04:05;;;;;;;5.28;2.17;;;;;;;;;;4930357;28;20113;-77
2022/05/27 09:06:49;;;;;;;3.67;2.35;;;;;;;;;;4930687;28;20402;-77
2022/05/27 09:09:21;;;;;;;6.63;3.28;;;;;;;;;;4931645;28;20102;-78
2022/05/27 09:12:16;;;;;;;4.95;2.42;;;;;;;;;;4997871;28;20032;-77
2022/05/27 09:14:45;;;;;;;5.38;2.58;;;;;;;;;;4977945;28;20125;-78
2022/05/27 09:17:15;;;;;;;4.93;2.65;;;;;;;;;;4971603;28;20039;-78
2022/05/27 09:19:49;;;;;;;6.78;2.30;;;;;;;;;;4934215;28;20114;-77
2022/05/27 09:22:50;;;;;;;4.07;2.17;;;;;;;;;;4934424;28;20501;-77
2022/05/27 09:25:25;;;;;;;4.43;2.28;;;;;;;;;;4966426;28;20113;-77
2022/05/27 09:28:15;;;;;;;4.82;2.33;;;;;;;;;;4918201;28;20058;-77
2022/05/27 09:30:40;;;;;;;4.93;2.72;;;;;;;;;;4949129;28;20114;-77
2022/05/27 09:33:07;;;;;;;3.70;2.00;;;;;;;;;;4948519;28;20616;-77
2022/05/27 09:35:48;;;;;;;4.20;1.88;;;;;;;;;;4905413;28;20403;-77
2022/05/27 09:38:24;;;;;;;5.15;1.95;;;;;;;;;;4953587;28;20179;-77
2022/05/27 09:40:55;;;;;;;4.15;2.28;;;;;;;;;;5020575;28;20520;-77
2022/05/27 09:43:48;;;;;;;3.80;1.55;;;;;;;;;;4953033;28;20046;-77
2022/05/27 09:46:34;;;;;;;4.32;1.88;;;;;;;;;;5021563;28;20053;-78
2022/05/27 09:49:00;;;;;;;3.35;1.70;;;;;;;;;;4922577;28;20059;-77
2022/05/27 09:51:26;;;;;;;3.38;1.70;;;;;;;;;;4933921;29;20440;-77
2022/05/27 09:53:54;;;;;;;4.85;2.17;;;;;;;;;;4934070;28;20070;-77
2022/05/27 09:56:43;;;;;;;2.80;1.60;;;;;;;;;;4934147;28;20092;-77
2022/05/27 09:59:41;;;;;;;3.55;1.60;;;;;;;;;;4933959;29;20082;-78
2022/05/27 10:02:15;;;;;;;4.97;1.88;;;;;;;;;;4930652;28;20052;-77
2022/05/27 10:05:20;;;;;;;5.47;2.22;;;;;;;;;;4931047;28;20051;-77
2022/05/27 10:07:57;;;;;;;6.85;4.10;;;;;;;;;;4933338;29;20060;-77
2022/05/27 10:10:35;;;;;;;6.72;4.05;;;;;;;;;;4930589;28;20090;-77
2022/05/27 10:13:22;;;;;;;9.02;4.22;;;;;;;;;;4914829;29;20046;-77
2022/05/27 10:15:48;;;;;;;7.95;4.00;;;;;;;;;;5016207;28;20047;-77
2022/05/27 10:18:24;;;;;;;9.38;4.35;;;;;;;;;;4932960;29;20051;-77
2022/05/27 10:21:16;;;;;;;6.05;3.05;;;;;;;;;;4933006;28;20043;-77
2022/05/27 10:23:48;;;;;;;6.53;2.80;;;;;;;;;;5010475;28;20066;-77
2022/05/27 10:26:23;;;;;;;4.68;2.63;;;;;;;;;;4997315;28;20048;-77
2022/05/27 10:28:57;;;;;;;5.20;2.83;;;;;;;;;;4941484;28;20055;-77
2022/05/27 10:31:24;;;;;;;6.28;2.50;;;;;;;;;;4933521;28;20086;-77
2022/05/27 10:33:50;;;;;;;4.43;1.95;;;;;;;;;;4920932;28;20039;-77
2022/05/27 10:36:49;;;;;;;4.25;2.00;;;;;;;;;;4933392;28;20092;-77
2022/05/27 10:39:24;;;;;;;4.60;1.70;;;;;;;;;;4933647;28;20043;-77
2022/05/27 10:42:18;;;;;;;4.20;2.38;;;;;;;;;;4949155;28;20506;-77
2022/05/27 10:45:11;;;;;;;3.47;1.90;;;;;;;;;;4928192;28;20063;-77
2022/05/27 10:47:51;;;;;;;5.55;1.90;;;;;;;;;;4932414;29;20043;-77
2022/05/27 10:50:17;;;;;;;4.00;1.42;;;;;;;;;;4949032;29;20035;-77
2022/05/27 10:52:55;;;;;;;3.50;1.52;;;;;;;;;;4950411;28;20509;-77
2022/05/27 10:55:31;;;;;;;3.90;1.70;;;;;;;;;;4965003;28;20035;-77
2022/05/27 11:04:06;;;;;;;2.92;1.00;;;;;;;;;;4913692;28;20475;-78
2022/05/27 11:06:51;;;;;;;3.63;1.30;;;;;;;;;;4930059;29;20036;-78
2022/05/27 11:09:41;;;;;;;2.75;1.23;;;;;;;;;;4920400;28;20114;-78
2022/05/27 11:12:22;;;;;;;3.72;1.15;;;;;;;;;;4940411;28;20410;-78
2022/05/27 11:15:12;;;;;;;3.40;1.35;;;;;;;;;;4929819;29;20075;-79
2022/05/27 11:17:52;;;;;;;2.22;0.90;;;;;;;;;;4962451;28;20097;-78
2022/05/27 11:20:41;;;;;;;4.45;1.35;;;;;;;;;;4933123;29;20055;-78
2022/05/27 11:23:34;;;;;;;2.80;1.00;;;;;;;;;;4941709;29;20529;-78
2022/05/27 11:26:17;;;;;;;3.30;1.48;;;;;;;;;;5016249;28;20071;-78
2022/05/27 11:29:14;;;;;;;6.60;1.92;;;;;;;;;;5019483;28;20047;-79
2022/05/27 11:31:55;;;;;;;3.40;1.20;;;;;;;;;;5035931;28;20039;-79
2022/05/27 11:34:57;;;;;;;3.10;1.00;;;;;;;;;;5017736;28;20536;-79
2022/05/27 11:37:32;;;;;;;2.08;0.90;;;;;;;;;;4963706;28;20130;-78
2022/05/27 11:40:33;;;;;;;2.25;1.05;;;;;;;;;;4971253;28;20035;-79
2022/05/27 11:43:19;;;;;;;2.50;0.90;;;;;;;;;;4978352;28;20051;-79
2022/05/27 11:46:02;;;;;;;2.80;0.90;;;;;;;;;;4971007;28;20467;-79
2022/05/27 11:48:40;;;;;;;2.85;0.80;;;;;;;;;;5009774;28;20110;-79
2022/05/27 11:51:22;;;;;;;2.88;1.02;;;;;;;;;;5000136;28;20035;-79
2022/05/27 11:53:50;;;;;;;2.40;0.90;;;;;;;;;;4981565;28;20067;-79
2022/05/27 11:56:27;;;;;;;4.82;1.00;;;;;;;;;;4983169;28;20036;-78
2022/05/27 11:59:00;;;;;;;2.90;1.17;;;;;;;;;;4999665;28;20039;-79
2022/05/27 12:01:32;;;;;;;2.35;0.75;;;;;;;;;;5026093;28;20069;-79
2022/05/27 12:04:05;;;;;;;;;;;;;;;;;;4952359;29;20035;-78
2022/05/27 12:07:08;;;;;;;2.78;1.13;;;;;;;;;;4951901;28;20415;-78
2022/05/27 12:09:47;;;;;;;2.42;0.80;;;;;;;;;;4951640;28;20205;-78
2022/05/27 12:12:20;;;;;;;3.15;0.95;;;;;;;;;;4919805;29;20038;-79
2022/05/27 12:14:55;;;;;;;;;;;;;;;;;;5002703;28;20035;-79
2022/05/27 12:17:35;;;;;;;2.28;0.70;;;;;;;;;;4929619;29;19918;-79
2022/05/27 12:20:00;;;;;;;2.53;0.80;;;;;;;;;;5012143;28;20039;-79
2022/05/27 12:22:30;;;;;;;2.35;0.80;;;;;;;;;;4986470;28;20547;-79
2022/05/27 12:25:16;;;;;;;1.88;0.60;;;;;;;;;;4920216;28;20050;-79
2022/05/27 12:27:42;;;;;;;3.33;1.17;;;;;;;;;;4921141;29;20056;-79
2022/05/27 12:30:08;;;;;;;1.40;0.60;;;;;;;;;;5002220;28;20039;-79
2022/05/27 12:32:34;;;;;;;1.58;0.57;;;;;;;;;;5018488;28;20047;-78
2022/05/27 12:35:40;;;;;;;1.77;0.73;;;;;;;;;;5018556;28;20063;-79
2022/05/27 12:38:10;;;;;;;1.23;0.65;;;;;;;;;;4935325;28;20035;-78
2022/05/27 12:41:00;;;;;;;3.55;1.83;;;;;;;;;;4935394;28;20039;-79
2022/05/27 12:43:31;;;;;;;1.73;0.70;;;;;;;;;;4950880;29;20040;-79
2022/05/27 12:46:02;;;;;;;2.30;0.70;;;;;;;;;;4935341;29;20113;-79
2022/05/27 12:48:34;;;;;;;2.13;0.77;;;;;;;;;;4934566;28;20031;-78
2022/05/27 12:51:04;;;;;;;3.83;0.80;;;;;;;;;;5001764;28;20101;-78
2022/05/27 12:53:59;;;;;;;1.67;0.57;;;;;;;;;;4999737;28;20081;-78
2022/05/27 13:02:13;;;;;;;2.03;0.50;;;;;;;;;;4951831;28;20442;-78
2022/05/27 13:04:57;;;;;;;1.70;0.70;;;;;;;;;;5018341;28;20532;-79
2022/05/27 13:07:38;;;;;;;4.70;1.40;;;;;;;;;;4951018;29;20051;-79
2022/05/27 13:10:16;;;;;;;1.27;0.50;;;;;;;;;;5017498;28;20043;-79
2022/05/27 13:12:44;;;;;;;4.55;0.80;;;;;;;;;;4950327;29;20391;-78
2022/05/27 13:15:14;;;;;;;2.38;0.80;;;;;;;;;;5014230;28;20031;-79
2022/05/27 13:17:44;;;;;;;3.00;0.73;;;;;;;;;;4918645;29;20405;-79
2022/05/27 13:20:58;;;;;;;1.80;0.60;;;;;;;;;;5001307;28;20090;-78
2022/05/27 13:23:27;;;;;;;3.53;1.15;;;;;;;;;;4934196;29;20250;-78
2022/05/27 13:26:17;;;;;;;2.95;0.75;;;;;;;;;;4918734;28;20047;-79
2022/05/27 13:28:47;;;;;;;2.67;0.80;;;;;;;;;;4935069;29;20052;-79
2022/05/27 13:31:13;;;;;;;2.25;0.50;;;;;;;;;;4918424;28;20039;-79
2022/05/27 13:34:02;;;;;;;2.63;0.65;;;;;;;;;;4934864;29;20069;-79
2022/05/27 13:36:53;;;;;;;2.63;0.77;;;;;;;;;;4929268;28;20054;-79
2022/05/27 13:39:32;;;;;;;3.00;0.98;;;;;;;;;;4959538;28;20058;-79
2022/05/27 13:41:57;;;;;;;2.15;0.60;;;;;;;;;;5022309;28;20087;-79
2022/05/27 13:44:23;;;;;;;2.50;0.70;;;;;;;;;;5004170;28;20039;-79
2022/05/27 13:46:52;;;;;;;2.83;0.60;;;;;;;;;;5004312;28;20070;-79
2022/05/27 13:49:31;;;;;;;2.40;0.60;;;;;;;;;;5019835;28;20070;-78
2022/05/27 13:51:57;;;;;;;2.70;0.82;;;;;;;;;;4934631;28;20041;-79
2022/05/27 13:54:38;;;;;;;7.18;1.42;;;;;;;;;;4918460;29;20031;-79
2022/05/27 13:57:06;;;;;;;2.20;0.65;;;;;;;;;;4918350;29;20093;-78
2022/05/27 13:59:40;;;;;;;3.40;0.80;;;;;;;;;;4934341;29;20039;-78
2022/05/27 14:02:49;;;;;;;2.75;0.93;;;;;;;;;;5017403;28;20031;-79
2022/05/27 14:05:23;;;;;;;3.33;0.90;;;;;;;;;;4859861;29;20153;-79
2022/05/27 14:07:56;;;;;;;2.97;1.00;;;;;;;;;;4919418;29;20059;-78
2022/05/27 14:10:24;;;;;;;3.05;0.90;;;;;;;;;;4933886;28;20031;-79
2022/05/27 14:12:50;;;;;;;4.32;0.70;;;;;;;;;;4934063;28;20550;-78
2022/05/27 14:15:18;;;;;;;2.15;0.65;;;;;;;;;;4931311;28;20031;-78
2022/05/27 14:17:49;;;;;;;3.47;1.02;;;;;;;;;;4933698;29;20517;-78
2022/05/27 14:20:26;;;;;;;3.42;0.65;;;;;;;;;;4999683;28;20061;-79
2022/05/27 14:22:52;;;;;;;2.00;0.90;;;;;;;;;;4917356;28;20505;-79
2022/05/27 14:25:30;;;;;;;2.00;0.75;;;;;;;;;;4917538;28;20039;-79
2022/05/27 14:27:57;;;;;;;2.30;0.60;;;;;;;;;;4981174;28;20123;-79
2022/05/27 14:30:26;;;;;;;4.45;0.90;;;;;;;;;;4915098;28;20044;-79
2022/05/27 14:32:52;;;;;;;3.25;1.08;;;;;;;;;;4930569;28;20055;-79
2022/05/27 14:35:21;;;;;;;2.67;0.80;;;;;;;;;;4997622;28;20036;-79
2022/05/27 14:38:05;;;;;;;3.90;1.30;;;;;;;;;;4936950;28;20042;-79
2022/05/27 14:40:45;;;;;;;3.10;1.23;;;;;;;;;;4968647;28;20035;-79
2022/05/27 14:43:39;;;;;;;5.90;0.93;;;;;;;;;;4952984;28;20046;-79
2022/05/27 14:46:24;;;;;;;4.30;1.10;;;;;;;;;;4952886;28;20042;-78
2022/05/27 14:48:59;;;;;;;4.65;1.30;;;;;;;;;;4952046;28;20038;-79
2022/05/27 14:51:40;;;;;;;4.15;1.20;;;;;;;;;;4924727;28;20035;-78
2022/05/27 14:54:28;;;;;;;2.72;0.90;;;;;;;;;;4933443;28;20173;-79
2022/05/27 14:57:32;;;;;;;3.67;1.02;;;;;;;;;;4948956;29;20146;-79
2022/05/27 15:00:12;;;;;;;2.25;1.00;;;;;;;;;;4933099;29;20051;-78
2022/05/27 15:02:41;;;;;;;3.08;1.00;;;;;;;;;;5013816;28;20100;-79
2022/05/27 15:05:10;;;;;;;1.92;0.75;;;;;;;;;;5017662;28;20071;-78
2022/05/27 15:07:46;;;;;;;2.50;0.80;;;;;;;;;;5017042;28;20041;-79
2022/05/27 15:10:38;;;;;;;3.53;1.17;;;;;;;;;;5034468;28;20048;-78
2022/05/27 15:13:27;;;;;;;2.70;0.80;;;;;;;;;;4994383;28;20045;-79
2022/05/27 15:16:09;;;;;;;2.35;0.80;;;;;;;;;;4952139;29;20067;-79
2022/05/27 15:18:35;;;;;;;;;;;;;;;;;;4995237;28;20055;-79
2022/05/27 15:21:04;;;;;;;2.92;0.80;;;;;;;;;;4936633;28;20441;-79
2022/05/27 15:23:35;;;;;;;2.22;0.80;;;;;;;;;;4920399;28;20036;-78
2022/05/27 15:34:27;;;;;;;4.03;1.23;;;;;;;;;;4946571;29;20046;-79
2022/05/27 15:36:53;;;;;;;2.88;0.80;;;;;;;;;;4947778;28;20119;-78
2022/05/27 15:39:19;;;;;;;2.80;1.00;;;;;;;;;;5000110;28;20539;-79
2022/05/27 15:41:44;;;;;;;2.45;0.80;;;;;;;;;;5000115;28;20038;-79
2022/05/27 15:44:10;;;;;;;3.72;1.20;;;;;;;;;;4967543;28;20414;-79
2022/05/27 15:46:35;;;;;;;4.90;0.93;;;;;;;;;;5000017;28;20452;-79
2022/05/27 15:49:01;;;;;;;2.80;0.98;;;;;;;;;;5015841;28;20448;-79
2022/05/27 15:51:26;;;;;;;3.08;0.80;;;;;;;;;;5031075;28;20463;-79
2022/05/27 15:53:53;;;;;;;3.38;1.52;;;;;;;;;;4935165;28;20398;-79
2022/05/27 15:56:19;;;;;;;2.47;1.30;;;;;;;;;;4935611;28;20050;-79
2022/05/27 15:58:45;;;;;;;3.67;1.10;;;;;;;;;;4919953;28;20066;-78
2022/05/27 16:01:10;;;;;;;2.38;1.27;;;;;;;;;;4939265;28;20032;-78